Time,TemperatureF,DewpointF,PressureIn,WindDirection,WindDirectionDegrees,WindSpeedMPH,WindSpeedGustMPH,Humidity,HourlyPrecipIn,Conditions,Clouds,dailyrainin,SoftwareType,DateUTC
2017-02-28 00:00:00,36.9,33.1,29.60,SE,142,10.0,13.0,86,0.00,OVC,SKC,0.00,WeatherDisplay:10.37,2017-02-28 06:00:00,
2017-02-28 00:30:00,37.9,33.8,29.59,SSE,152,12.0,17.0,85,0.00,SCT,SKC,0.00,WeatherDisplay:10.37,2017-02-28 06:30:00,
2017-02-28 01:00:00,37.3,33.5,29.57,SE,143,10.0,13.0,86,0.01,CLR,SKC,0.01,WeatherDisplay:10.37,2017-02-28 07:00:00,
2017-02-28 01:30:00,37.8,33.7,29.55,SSE,148,9.0,14.0,85,0.01,RA,SKC,0.02,WeatherDisplay:10.37,2017-02-28 07:30:00,
2017-02-28 02:00:00,37.7,33.9,29.55,SE,145,12.0,15.0,86,0.01,RA,SKC,0.03,WeatherDisplay:10.37,2017-02-28 08:00:00,
2017-02-28 02:30:00,37.2,33.1,29.53,SE,143,8.0,17.0,85,0.00,SCT,SKC,0.03,WeatherDisplay:10.37,2017-02-28 08:30:00,
2017-02-28 03:00:00,36.3,31.9,29.52,SE,144,3.0,10.0,84,0.01,CLR,SKC,0.04,WeatherDisplay:10.37,2017-02-28 09:00:00,
2017-02-28 03:30:00,36.2,31.2,29.51,SSE,155,7.0,8.0,82,0.00,CLR,SKC,0.04,WeatherDisplay:10.37,2017-02-28 09:30:00,
2017-02-28 04:00:00,36.4,31.4,29.50,SE,143,3.0,8.0,82,0.00,CLR,SKC,0.04,WeatherDisplay:10.37,2017-02-28 10:00:00,
2017-02-28 04:30:00,37.0,32.6,29.49,SE,146,5.0,8.0,84,0.01,CLR,SKC,0.05,WeatherDisplay:10.37,2017-02-28 10:30:00,
2017-02-28 05:00:00,36.2,31.8,29.49,SSE,155,2.0,7.0,84,0.00,CLR,SKC,0.05,WeatherDisplay:10.37,2017-02-28 11:00:00,
2017-02-28 05:30:00,35.7,31.3,29.48,SSE,155,5.0,6.0,84,0.00,CLR,SKC,0.05,WeatherDisplay:10.37,2017-02-28 11:30:00,
2017-02-28 06:00:00,35.1,30.8,29.48,SSE,155,3.0,4.0,84,0.00,CLR,SKC,0.05,WeatherDisplay:10.37,2017-02-28 12:00:00,
2017-02-28 06:30:00,34.4,29.2,29.47,SSE,155,0.0,6.0,81,0.00,CLR,SKC,0.05,WeatherDisplay:10.37,2017-02-28 12:30:00,
2017-02-28 07:00:00,34.4,28.6,29.46,SSE,155,0.0,2.0,79,0.00,CLR,SKC,0.05,WeatherDisplay:10.37,2017-02-28 13:00:00,
2017-02-28 07:30:00,34.2,27.4,29.45,SSE,155,0.0,2.0,76,0.00,SCT,SKC,0.05,WeatherDisplay:10.37,2017-02-28 13:30:00,
2017-02-28 08:00:00,34.5,27.4,29.46,SSE,155,1.0,3.0,75,0.00,SCT,SKC,0.05,WeatherDisplay:10.37,2017-02-28 14:00:00,
2017-02-28 08:30:00,34.4,27.0,29.46,SSE,155,0.0,2.0,74,0.00,BKN,SKC,0.05,WeatherDisplay:10.37,2017-02-28 14:30:00,
2017-02-28 09:00:00,35.7,26.9,29.46,North,9,2.0,6.0,70,0.01,BKN,SKC,0.06,WeatherDisplay:10.37,2017-02-28 15:00:00,
2017-02-28 09:30:00,37.5,29.6,29.46,North,351,2.0,6.0,73,0.01,RA,SKC,0.07,WeatherDisplay:10.37,2017-02-28 15:30:00,